Time;durP1;ratioP1;P1;durP2;ratioP2;P2;SDS_P1;SDS_P2;PMS_P1;PMS_P2;Temp;Humidity;BMP_temperature;BMP_pressure;BME280_temperature;BME280_humidity;BME280_pressure;Samples;Min_cycle;Max_cycle;Signal;HPM_P1;HPM_P2
2021/03/21 00:00:12;;;;;;;10.98;6.90;;;2.20;97.40;;;;;;5031150;28;20543;-69
2021/03/21 00:02:37;;;;;;;11.10;6.82;;;2.20;96.90;;;;;;5030734;28;20079;-69
2021/03/21 00:05:04;;;;;;;12.88;7.63;;;2.20;96.80;;;;;;5062903;28;20029;-68
2021/03/21 00:07:29;;;;;;;13.35;7.45;;;2.20;97.20;;;;;;5031233;28;20018;-68
2021/03/21 00:09:55;;;;;;;12.60;6.95;;;2.30;97.20;;;;;;5030747;28;20033;-67
2021/03/21 00:12:20;;;;;;;9.77;6.70;;;2.20;98.20;;;;;;5030853;28;20021;-68
2021/03/21 00:14:46;;;;;;;14.85;8.18;;;2.20;98.90;;;;;;5029807;28;20094;-67
2021/03/21 00:17:11;;;;;;;11.65;7.47;;;2.30;99.50;;;;;;5031930;28;20036;-68
2021/03/21 00:19:37;;;;;;;14.70;7.65;;;2.10;98.50;;;;;;5051237;28;20032;-69
2021/03/21 00:22:03;;;;;;;13.90;7.80;;;2.10;98.70;;;;;;5050724;28;20029;-68
2021/03/21 00:24:29;;;;;;;13.18;7.18;;;2.20;98.10;;;;;;5050423;28;20063;-68
2021/03/21 00:26:54;;;;;;;10.60;7.00;;;2.20;97.90;;;;;;5050886;28;20028;-68
2021/03/21 00:29:20;;;;;;;13.90;7.68;;;2.00;98.20;;;;;;5050750;28;20438;-67
2021/03/21 00:31:45;;;;;;;11.80;7.55;;;2.00;97.90;;;;;;5039305;28;20465;-67
2021/03/21 00:34:11;;;;;;;10.95;7.57;;;2.00;98.30;;;;;;5030107;28;20021;-68
2021/03/21 00:36:37;;;;;;;9.50;7.20;;;2.10;98.40;;;;;;5030982;28;20025;-67
2021/03/21 00:39:04;;;;;;;13.45;7.60;;;2.10;99.20;;;;;;5031279;28;20022;-68
2021/03/21 00:41:30;;;;;;;12.90;7.72;;;2.20;98.40;;;;;;5031254;28;20060;-68
2021/03/21 00:43:57;;;;;;;17.27;7.25;;;2.10;99.20;;;;;;5031479;28;20045;-68
2021/03/21 00:46:25;;;;;;;12.70;7.30;;;2.00;98.40;;;;;;5034911;28;20021;-69
2021/03/21 00:48:51;;;;;;;12.43;7.88;;;2.00;98.60;;;;;;5049215;28;20070;-67
2021/03/21 00:51:17;;;;;;;10.63;7.57;;;2.10;99.90;;;;;;5054858;28;20025;-67
2021/03/21 00:53:44;;;;;;;11.68;8.05;;;2.10;99.00;;;;;;5054292;28;20029;-69
2021/03/21 00:56:31;;;;;;;11.75;7.57;;;2.20;99.00;;;;;;5054629;28;20056;-70
2021/03/21 00:58:58;;;;;;;10.23;7.40;;;2.20;99.00;;;;;;5055956;28;20074;-70
2021/03/21 01:01:24;;;;;;;13.13;7.85;;;2.30;98.70;;;;;;5062923;28;20017;-70
2021/03/21 01:03:50;;;;;;;11.57;7.75;;;2.30;98.30;;;;;;5063386;28;20495;-70
2021/03/21 01:06:16;;;;;;;13.75;8.07;;;2.30;97.80;;;;;;5064490;28;20028;-69
2021/03/21 01:08:42;;;;;;;12.50;8.30;;;2.40;97.60;;;;;;5063819;28;20056;-68
2021/03/21 01:11:23;;;;;;;13.82;7.30;;;2.40;97.30;;;;;;5064124;28;20025;-69
2021/03/21 01:13:48;;;;;;;9.98;7.68;;;2.50;97.00;;;;;;5066569;28;20048;-69
2021/03/21 01:16:19;;;;;;;12.13;7.85;;;2.40;97.10;;;;;;5066334;28;20468;-70
2021/03/21 01:18:45;;;;;;;13.13;7.57;;;2.40;97.90;;;;;;5053718;28;20036;-69
2021/03/21 01:21:11;;;;;;;13.60;8.43;;;2.40;97.90;;;;;;5049186;28;20033;-69
2021/03/21 01:23:41;;;;;;;12.93;8.65;;;2.30;97.90;;;;;;5038544;28;20033;-70
2021/03/21 01:26:14;;;;;;;14.18;8.65;;;2.30;98.00;;;;;;5034611;28;20105;-69
2021/03/21 01:28:41;;;;;;;13.38;8.57;;;2.20;98.40;;;;;;5033942;28;20067;-70
2021/03/21 01:31:13;;;;;;;16.95;9.10;;;2.20;98.70;;;;;;5034355;28;20030;-69
2021/03/21 01:33:38;;;;;;;15.43;8.48;;;2.20;98.90;;;;;;5049699;28;20139;-69
2021/03/21 01:36:08;;;;;;;13.77;8.40;;;2.20;99.50;;;;;;5034097;28;20033;-68
2021/03/21 01:38:34;;;;;;;13.52;8.30;;;2.20;99.40;;;;;;5033604;28;20679;-69
2021/03/21 01:41:03;;;;;;;14.00;8.52;;;2.10;99.50;;;;;;5032062;28;20083;-68
2021/03/21 01:43:35;;;;;;;12.13;7.78;;;2.20;99.40;;;;;;5032760;28;20064;-68
2021/03/21 01:46:00;;;;;;;13.40;8.38;;;2.00;99.90;;;;;;5033235;28;20074;-68
2021/03/21 01:48:32;;;;;;;14.63;8.63;;;2.10;99.90;;;;;;5043983;28;20033;-69
2021/03/21 01:51:07;;;;;;;14.88;8.98;;;2.10;99.90;;;;;;5053092;28;20029;-69
2021/03/21 01:53:36;;;;;;;12.80;8.23;;;2.10;99.90;;;;;;5052402;28;20029;-69
2021/03/21 01:56:02;;;;;;;12.27;8.52;;;2.20;99.90;;;;;;5052700;28;20017;-70
2021/03/21 01:58:29;;;;;;;14.27;8.32;;;2.10;99.90;;;;;;5053069;28;20108;-69
2021/03/21 02:01:00;;;;;;;15.77;8.32;;;2.10;99.90;;;;;;5052588;28;20037;-68
2021/03/21 02:03:26;;;;;;;11.88;7.97;;;2.20;99.90;;;;;;5051941;28;20483;-69
2021/03/21 02:06:12;;;;;;;11.68;7.50;;;2.10;99.90;;;;;;5052619;28;20029;-69
2021/03/21 02:08:46;;;;;;;15.00;8.02;;;2.00;99.90;;;;;;5052842;28;20029;-68
2021/03/21 02:11:42;;;;;;;10.95;7.45;;;2.00;99.90;;;;;;5052642;28;20463;-68
2021/03/21 02:14:15;;;;;;;10.30;7.00;;;1.90;99.90;;;;;;5064746;28;20040;-68
2021/03/21 02:16:50;;;;;;;15.50;7.53;;;2.00;99.90;;;;;;5052559;28;20029;-69
2021/03/21 02:19:33;;;;;;;10.43;7.93;;;2.00;99.90;;;;;;5052676;28;20013;-69
2021/03/21 02:22:07;;;;;;;11.68;8.13;;;2.10;99.90;;;;;;5053553;28;20044;-69
2021/03/21 02:24:52;;;;;;;17.75;8.13;;;2.00;99.90;;;;;;5053376;28;20029;-69
2021/03/21 02:27:37;;;;;;;12.07;8.15;;;2.10;99.90;;;;;;5045243;28;20108;-70
2021/03/21 02:30:32;;;;;;;12.18;8.10;;;2.10;99.90;;;;;;5033110;28;20018;-69
2021/03/21 02:33:14;;;;;;;12.40;8.02;;;2.20;99.90;;;;;;5032890;28;20098;-70
2021/03/21 02:36:01;;;;;;;9.52;6.90;;;2.20;99.90;;;;;;5032975;28;20028;-70
2021/03/21 02:38:42;;;;;;;10.93;7.43;;;2.20;99.90;;;;;;5033131;28;20484;-69
2021/03/21 02:41:17;;;;;;;11.80;7.63;;;2.30;99.90;;;;;;5032936;28;20026;-70
2021/03/21 02:43:51;;;;;;;16.90;8.48;;;2.40;99.90;;;;;;5030881;28;20043;-69
2021/03/21 02:46:22;;;;;;;11.27;7.55;;;2.20;99.90;;;;;;5032678;28;20076;-70
2021/03/21 02:48:58;;;;;;;11.57;7.97;;;2.30;99.90;;;;;;5064292;28;20029;-69
2021/03/21 02:51:34;;;;;;;10.48;7.25;;;2.30;99.90;;;;;;5032790;28;20033;-68
2021/03/21 02:54:24;;;;;;;15.13;7.78;;;2.30;99.90;;;;;;5032237;28;20064;-70
2021/03/21 02:56:56;;;;;;;14.13;8.27;;;2.30;99.90;;;;;;5032551;28;20021;-69
2021/03/21 02:59:35;;;;;;;11.10;7.47;;;2.20;99.90;;;;;;5032487;28;20029;-69
2021/03/21 03:02:22;;;;;;;12.30;8.07;;;2.30;99.90;;;;;;5032902;28;20477;-69
2021/03/21 03:04:58;;;;;;;9.65;7.32;;;2.20;99.90;;;;;;5031487;28;20105;-69
2021/03/21 03:07:48;;;;;;;10.35;7.75;;;2.20;99.90;;;;;;5032471;28;20028;-69
2021/03/21 03:10:28;;;;;;;12.18;7.22;;;2.20;99.90;;;;;;5043194;28;20088;-68
2021/03/21 03:13:18;;;;;;;14.98;7.75;;;2.20;99.90;;;;;;5032396;28;20079;-68
2021/03/21 03:15:43;;;;;;;11.80;7.78;;;2.30;99.90;;;;;;5032506;28;20025;-69
2021/03/21 03:18:18;;;;;;;12.13;7.30;;;2.20;99.90;;;;;;5032108;28;20036;-68
2021/03/21 03:20:51;;;;;;;13.02;7.10;;;2.20;99.90;;;;;;5033035;28;20480;-68
2021/03/21 03:23:32;;;;;;;12.63;8.20;;;2.20;99.90;;;;;;5032208;28;20065;-67
2021/03/21 03:26:15;;;;;;;9.55;7.47;;;2.20;99.90;;;;;;5036199;28;20076;-68
2021/03/21 03:28:52;;;;;;;;;;;2.10;99.90;;;;;;5040151;28;20107;-68
2021/03/21 03:31:25;;;;;;;11.68;7.53;;;2.10;99.90;;;;;;5048530;28;19905;-70
2021/03/21 03:33:50;;;;;;;13.05;9.00;;;2.10;99.90;;;;;;5037572;28;20036;-68
2021/03/21 03:36:17;;;;;;;14.85;8.02;;;2.20;99.90;;;;;;5031876;28;20022;-69
2021/03/21 03:38:46;;;;;;;12.05;8.18;;;2.10;99.90;;;;;;5036154;28;20033;-69
2021/03/21 03:41:44;;;;;;;10.82;7.18;;;2.10;99.90;;;;;;5051414;28;20017;-70
2021/03/21 03:44:40;;;;;;;10.95;7.57;;;2.10;99.90;;;;;;5050992;28;20120;-69
2021/03/21 03:47:20;;;;;;;15.35;6.97;;;2.10;99.90;;;;;;5054102;22;20045;-66
2021/03/21 03:50:01;;;;;;;11.35;7.25;;;2.20;99.90;;;;;;4924844;29;20079;-66
2021/03/21 03:52:57;;;;;;;11.80;7.72;;;2.20;99.90;;;;;;4912582;29;20031;-66
2021/03/21 03:55:28;;;;;;;9.45;7.20;;;2.20;99.90;;;;;;4912762;28;20052;-66
2021/03/21 03:58:32;;;;;;;11.30;7.68;;;2.20;99.90;;;;;;4912545;29;20822;-66
2021/03/21 04:01:01;;;;;;;10.40;7.47;;;2.20;99.90;;;;;;4917463;29;20064;-66
2021/03/21 04:03:59;;;;;;;13.50;8.75;;;2.20;99.90;;;;;;4912235;29;20028;-66
2021/03/21 04:06:35;;;;;;;10.85;7.78;;;2.20;99.90;;;;;;4910221;29;20051;-66
2021/03/21 04:09:27;;;;;;;11.13;7.60;;;2.20;99.90;;;;;;4912793;29;20052;-67
2021/03/21 04:12:24;;;;;;;13.27;7.95;;;2.20;99.90;;;;;;4911657;29;20024;-67
2021/03/21 04:15:05;;;;;;;10.32;7.13;;;2.10;99.90;;;;;;4909473;29;20064;-66
2021/03/21 04:17:45;;;;;;;11.00;7.43;;;2.10;99.90;;;;;;4917154;29;20058;-67
2021/03/21 04:20:22;;;;;;;12.50;7.20;;;2.10;99.90;;;;;;4934498;28;20089;-66
2021/03/21 04:23:12;;;;;;;16.52;8.27;;;2.10;99.90;;;;;;4935783;29;20028;-66
2021/03/21 04:25:47;;;;;;;11.63;7.13;;;2.10;99.90;;;;;;4936487;28;20036;-65
2021/03/21 04:28:32;;;;;;;15.60;8.02;;;2.20;99.90;;;;;;4944544;29;20030;-66
2021/03/21 04:31:02;;;;;;;10.98;7.38;;;2.10;99.90;;;;;;4944490;28;20023;-66
2021/03/21 04:33:33;;;;;;;11.25;7.55;;;2.20;99.90;;;;;;4938947;29;20385;-66
2021/03/21 04:36:08;;;;;;;11.52;7.30;;;2.20;99.90;;;;;;4934480;29;20028;-67
2021/03/21 04:38:42;;;;;;;10.98;7.45;;;2.10;99.90;;;;;;4934672;29;20040;-66
2021/03/21 04:41:11;;;;;;;10.25;7.60;;;2.20;99.90;;;;;;4934567;29;20107;-66
2021/03/21 04:44:03;;;;;;;12.13;7.95;;;2.20;99.90;;;;;;4933713;29;20051;-66
2021/03/21 04:46:37;;;;;;;10.38;7.68;;;2.20;99.90;;;;;;4937027;28;20040;-65
2021/03/21 04:49:03;;;;;;;12.23;7.82;;;2.20;99.90;;;;;;4933193;29;20067;-65
2021/03/21 04:51:38;;;;;;;12.27;8.77;;;2.20;99.90;;;;;;4935207;29;20023;-66
2021/03/21 04:54:09;;;;;;;16.02;8.93;;;2.20;99.90;;;;;;4929600;29;20035;-68
2021/03/21 04:56:49;;;;;;;14.50;7.38;;;2.10;99.90;;;;;;4916232;29;20107;-66
2021/03/21 04:59:29;;;;;;;12.23;7.15;;;2.00;99.90;;;;;;4915512;29;20079;-65
2021/03/21 05:02:16;;;;;;;11.30;7.63;;;2.00;99.90;;;;;;4915948;29;20030;-66
2021/03/21 05:04:49;;;;;;;13.38;7.60;;;2.00;99.90;;;;;;4914643;29;20052;-66
2021/03/21 05:07:49;;;;;;;10.63;8.05;;;2.00;99.90;;;;;;4915232;29;20029;-66
2021/03/21 05:10:24;;;;;;;11.02;7.75;;;2.10;99.90;;;;;;4915303;29;20025;-66
2021/03/21 05:13:06;;;;;;;14.52;8.07;;;2.00;99.90;;;;;;4914991;29;20095;-67
2021/03/21 05:16:01;;;;;;;9.32;7.50;;;2.00;99.90;;;;;;4914969;29;20035;-67
2021/03/21 05:18:46;;;;;;;12.90;7.65;;;2.00;99.90;;;;;;4915129;29;20036;-67
2021/03/21 05:21:16;;;;;;;13.65;8.15;;;2.00;99.90;;;;;;4922882;28;20043;-67
2021/03/21 05:24:14;;;;;;;13.30;8.52;;;2.20;99.90;;;;;;4933187;29;20034;-66
2021/03/21 05:26:50;;;;;;;11.77;7.57;;;2.10;99.90;;;;;;4984108;28;20035;-66
2021/03/21 05:29:38;;;;;;;11.80;7.88;;;2.10;99.90;;;;;;4933151;29;20020;-67
2021/03/21 05:32:06;;;;;;;12.07;7.80;;;2.10;99.90;;;;;;4933648;29;20542;-67
2021/03/21 05:34:32;;;;;;;11.13;7.63;;;2.10;99.90;;;;;;4932851;29;20032;-68
2021/03/21 05:37:47;;;;;;;13.75;8.52;;;2.20;99.90;;;;;;4933069;29;20488;-66
2021/03/21 05:40:26;;;;;;;9.98;6.72;;;2.20;99.90;;;;;;4945586;28;20055;-66
2021/03/21 05:43:14;;;;;;;9.52;7.28;;;2.30;99.90;;;;;;4932701;29;20058;-66
2021/03/21 05:45:58;;;;;;;9.98;6.78;;;2.30;99.90;;;;;;4932880;29;20019;-67
2021/03/21 05:49:31;;;;;;;12.35;7.03;;;2.30;99.90;;;;;;4932945;29;20035;-67
2021/03/21 05:52:21;;;;;;;10.40;6.13;;;2.30;99.90;;;;;;4969777;28;20162;-67
2021/03/21 05:54:55;;;;;;;10.18;7.10;;;2.30;99.90;;;;;;4932354;29;20023;-67
2021/03/21 05:57:24;;;;;;;11.52;7.63;;;2.30;99.90;;;;;;4947706;28;20062;-67
2021/03/21 05:59:59;;;;;;;11.43;7.03;;;2.40;99.90;;;;;;4933089;28;20107;-66
2021/03/21 06:02:45;;;;;;;8.45;6.70;;;2.30;99.90;;;;;;4933604;28;20034;-67
2021/03/21 06:05:29;;;;;;;12.48;7.45;;;2.40;99.90;;;;;;4932761;28;20032;-68
2021/03/21 06:08:29;;;;;;;9.45;6.40;;;2.50;99.90;;;;;;4932629;29;20032;-67
2021/03/21 06:11:32;;;;;;;10.20;7.00;;;2.50;99.90;;;;;;4932669;29;20048;-67
2021/03/21 06:14:41;;;;;;;9.40;6.68;;;2.60;99.90;;;;;;4932000;29;20031;-67
2021/03/21 06:17:37;;;;;;;9.65;7.15;;;2.60;99.90;;;;;;4924591;28;20036;-67
2021/03/21 06:20:12;;;;;;;12.23;7.07;;;2.50;99.90;;;;;;4927340;28;20065;-66
2021/03/21 06:22:47;;;;;;;9.48;7.43;;;2.60;99.90;;;;;;4931558;28;20034;-67
2021/03/21 06:25:34;;;;;;;12.57;7.35;;;2.60;99.90;;;;;;4933700;29;20027;-65
2021/03/21 06:28:33;;;;;;;13.65;7.40;;;2.40;99.90;;;;;;4932364;29;20793;-66
2021/03/21 06:31:23;;;;;;;11.82;7.07;;;2.50;99.90;;;;;;4940508;28;20036;-67
2021/03/21 06:33:58;;;;;;;11.80;6.80;;;2.40;99.90;;;;;;4933369;29;20428;-68
2021/03/21 06:36:56;;;;;;;13.25;7.72;;;2.50;99.90;;;;;;4936589;29;20032;-69
2021/03/21 06:39:27;;;;;;;8.65;6.43;;;2.40;99.90;;;;;;4936581;29;20027;-68
2021/03/21 06:41:55;;;;;;;9.85;7.60;;;2.60;99.90;;;;;;4937866;29;20119;-69
2021/03/21 06:44:40;;;;;;;10.68;6.97;;;2.70;99.90;;;;;;4940071;29;20031;-69
2021/03/21 06:47:09;;;;;;;8.27;5.93;;;2.70;99.90;;;;;;4939808;29;20391;-68
2021/03/21 06:49:40;;;;;;;8.73;5.90;;;2.80;99.90;;;;;;4941864;29;20028;-68
2021/03/21 06:52:31;;;;;;;8.02;5.53;;;2.90;99.90;;;;;;4938826;29;20039;-68
2021/03/21 06:55:12;;;;;;;9.75;7.28;;;2.90;99.90;;;;;;4941566;29;20552;-72
2021/03/21 06:57:59;;;;;;;9.00;5.75;;;3.10;99.90;;;;;;4947155;28;20020;-72
2021/03/21 07:00:28;;;;;;;6.05;5.35;;;3.80;99.90;;;;;;4949148;29;20058;-72
2021/03/21 07:03:15;;;;;;;6.38;4.97;;;4.10;99.90;;;;;;4946959;28;20028;-73
2021/03/21 07:05:52;;;;;;;9.63;5.30;;;4.60;99.90;;;;;;5004834;28;20021;-68
2021/03/21 07:08:56;;;;;;;7.50;5.68;;;4.30;99.90;;;;;;5026463;28;20049;-68
2021/03/21 07:12:06;;;;;;;8.32;5.35;;;4.00;99.90;;;;;;5012714;28;20054;-69
2021/03/21 07:14:49;;;;;;;8.80;5.82;;;3.70;99.90;;;;;;4932292;29;20019;-68
2021/03/21 07:17:52;;;;;;;8.20;5.93;;;3.50;99.90;;;;;;4933358;29;20045;-68
2021/03/21 07:20:45;;;;;;;10.00;6.13;;;3.50;99.90;;;;;;4930802;29;20024;-67
2021/03/21 07:23:50;;;;;;;6.57;5.30;;;3.10;99.90;;;;;;4941357;29;20162;-69
2021/03/21 07:26:46;;;;;;;8.73;5.85;;;3.20;99.90;;;;;;4932981;29;20066;-67
2021/03/21 07:29:48;;;;;;;7.78;5.72;;;3.10;99.90;;;;;;4931150;28;20035;-68
2021/03/21 07:32:37;;;;;;;9.43;5.82;;;2.90;99.90;;;;;;4932948;29;20063;-67
2021/03/21 07:35:30;;;;;;;7.50;5.57;;;3.00;99.90;;;;;;4933067;29;20067;-67
2021/03/21 07:38:21;;;;;;;7.75;5.20;;;3.20;99.90;;;;;;4938600;29;20036;-66
2021/03/21 07:40:57;;;;;;;7.18;5.65;;;3.20;99.90;;;;;;4951402;28;20032;-67
2021/03/21 07:43:42;;;;;;;10.77;6.00;;;3.20;99.90;;;;;;4933146;29;20020;-67
2021/03/21 07:46:31;;;;;;;9.23;5.57;;;3.10;99.90;;;;;;4934234;29;20024;-66
2021/03/21 07:49:19;;;;;;;7.05;4.82;;;3.20;99.90;;;;;;4919748;29;20535;-68
2021/03/21 07:52:03;;;;;;;8.30;6.00;;;3.30;99.90;;;;;;4923054;29;20418;-67
2021/03/21 07:54:51;;;;;;;8.82;6.13;;;3.30;99.90;;;;;;4946956;28;20027;-67
2021/03/21 07:57:22;;;;;;;9.55;5.28;;;3.50;99.90;;;;;;4932601;28;20047;-67
2021/03/21 07:59:48;;;;;;;5.88;5.10;;;3.60;99.90;;;;;;4928110;29;20723;-67
2021/03/21 08:02:25;;;;;;;8.18;5.30;;;3.70;99.90;;;;;;4915177;29;20112;-68
2021/03/21 08:04:54;;;;;;;7.40;5.05;;;3.60;99.90;;;;;;4928892;29;20031;-68
2021/03/21 08:07:30;;;;;;;7.45;5.13;;;3.50;99.90;;;;;;4933266;29;20028;-67
2021/03/21 08:09:56;;;;;;;12.30;5.47;;;3.50;99.90;;;;;;4932453;29;20020;-67
2021/03/21 08:12:22;;;;;;;7.95;5.13;;;3.50;99.90;;;;;;4927551;28;20020;-67
2021/03/21 08:14:54;;;;;;;7.90;4.65;;;3.50;99.90;;;;;;4931372;29;20090;-67
2021/03/21 08:17:31;;;;;;;10.27;4.93;;;3.30;99.90;;;;;;4932068;29;20512;-67
2021/03/21 08:20:00;;;;;;;7.22;4.70;;;3.40;99.90;;;;;;4921390;28;20063;-66
2021/03/21 08:22:29;;;;;;;8.00;4.80;;;3.20;99.90;;;;;;4916284;29;20131;-68
2021/03/21 08:25:00;;;;;;;7.57;5.00;;;3.30;99.90;;;;;;4920401;29;20423;-67
2021/03/21 08:27:29;;;;;;;8.52;5.53;;;3.40;99.90;;;;;;4933379;29;20028;-66
2021/03/21 08:30:11;;;;;;;7.05;5.68;;;3.60;99.90;;;;;;4932291;29;20513;-67
2021/03/21 08:32:52;;;;;;;6.67;5.13;;;3.60;99.90;;;;;;4947306;29;20146;-67
2021/03/21 08:35:27;;;;;;;5.57;4.50;;;3.70;99.90;;;;;;4932893;29;20024;-67
2021/03/21 08:37:58;;;;;;;8.68;5.25;;;3.70;99.90;;;;;;4946807;28;20071;-66
2021/03/21 08:40:36;;;;;;;6.93;4.88;;;3.80;99.90;;;;;;4930606;29;20098;-67
2021/03/21 08:43:21;;;;;;;7.32;4.57;;;3.80;99.90;;;;;;4930381;29;20027;-68
2021/03/21 08:45:49;;;;;;;7.68;5.30;;;4.00;99.90;;;;;;4923149;29;20062;-68
2021/03/21 08:48:31;;;;;;;7.15;4.32;;;4.10;99.90;;;;;;4928087;29;20485;-68
2021/03/21 08:51:04;;;;;;;7.97;4.53;;;4.10;99.90;;;;;;4917018;29;20501;-68
2021/03/21 08:53:52;;;;;;;6.57;4.60;;;4.00;99.90;;;;;;4928984;29;20664;-67
2021/03/21 08:56:28;;;;;;;5.00;4.50;;;3.90;99.90;;;;;;4932522;29;20095;-67
2021/03/21 08:59:06;;;;;;;6.70;4.05;;;3.90;99.90;;;;;;4931486;28;20032;-66
2021/03/21 09:01:33;;;;;;;5.55;4.55;;;4.00;99.90;;;;;;4932409;29;20035;-67
2021/03/21 09:04:17;;;;;;;7.32;4.90;;;4.10;99.90;;;;;;4932724;28;20039;-67
2021/03/21 09:06:47;;;;;;;7.78;5.00;;;4.30;99.90;;;;;;4934587;29;20024;-67
2021/03/21 09:09:38;;;;;;;5.55;4.43;;;4.40;99.90;;;;;;4933791;29;20557;-67
2021/03/21 09:12:22;;;;;;;6.00;4.00;;;4.50;99.90;;;;;;4934084;29;20442;-67
2021/03/21 09:15:11;;;;;;;5.20;4.15;;;4.50;99.90;;;;;;4935335;29;20016;-69
2021/03/21 09:17:38;;;;;;;5.53;4.22;;;4.60;99.90;;;;;;4933784;29;20051;-67
2021/03/21 09:20:05;;;;;;;6.13;4.40;;;4.80;99.80;;;;;;4935605;29;20032;-67
2021/03/21 09:22:39;;;;;;;5.85;4.80;;;4.90;99.10;;;;;;4924707;28;20059;-69
2021/03/21 09:25:13;;;;;;;9.65;4.43;;;5.00;99.80;;;;;;4932020;28;20083;-71
2021/03/21 09:27:44;;;;;;;5.60;3.80;;;5.20;98.60;;;;;;4917560;28;20021;-70
2021/03/21 09:30:42;;;;;;;7.93;4.00;;;5.20;97.70;;;;;;4916687;29;20106;-69
2021/03/21 09:33:15;;;;;;;7.68;4.68;;;5.10;97.90;;;;;;4910602;29;20568;-68
2021/03/21 09:35:55;;;;;;;6.00;4.32;;;5.30;98.10;;;;;;4915975;29;20024;-66
2021/03/21 09:38:28;;;;;;;7.43;4.03;;;5.20;97.20;;;;;;4915357;29;20111;-68
2021/03/21 09:40:57;;;;;;;4.38;3.55;;;5.00;96.80;;;;;;4933338;28;20028;-68
2021/03/21 09:43:38;;;;;;;4.15;3.70;;;4.90;96.70;;;;;;4932998;29;20032;-68
2021/03/21 09:46:07;;;;;;;5.47;4.10;;;4.70;97.00;;;;;;4932389;29;20028;-68
2021/03/21 09:48:51;;;;;;;8.27;4.10;;;4.70;97.30;;;;;;4931701;28;20511;-68
2021/03/21 09:51:34;;;;;;;5.95;3.83;;;4.90;96.90;;;;;;4932069;28;20036;-68
2021/03/21 09:54:00;;;;;;;10.02;4.55;;;4.90;97.40;;;;;;4931242;28;20122;-69
2021/03/21 09:56:34;;;;;;;12.57;6.53;;;4.80;97.10;;;;;;4930589;28;20142;-68
2021/03/21 09:59:11;;;;;;;10.95;6.32;;;4.90;96.70;;;;;;4928649;29;20066;-67
2021/03/21 10:01:52;;;;;;;7.32;4.07;;;4.90;97.40;;;;;;4918848;29;20028;-66
2021/03/21 10:04:24;;;;;;;5.00;3.75;;;4.90;97.20;;;;;;4930925;29;20720;-66
2021/03/21 10:06:52;;;;;;;5.73;4.33;;;4.90;96.90;;;;;;4929166;28;20166;-67
2021/03/21 10:09:23;;;;;;;5.82;3.80;;;5.00;96.70;;;;;;4913220;29;20325;-67
2021/03/21 10:11:53;;;;;;;4.82;3.38;;;4.80;96.10;;;;;;4913516;29;20035;-67
2021/03/21 10:14:24;;;;;;;4.50;3.95;;;4.90;96.10;;;;;;4912740;29;20032;-67
2021/03/21 10:16:52;;;;;;;5.97;3.85;;;4.50;95.80;;;;;;4911471;29;20413;-68
2021/03/21 10:19:53;;;;;;;7.60;4.13;;;4.80;96.20;;;;;;4929189;28;20517;-68
2021/03/21 10:22:25;;;;;;;10.10;4.15;;;5.00;96.40;;;;;;4940448;28;20058;-67
2021/03/21 10:24:54;;;;;;;4.93;4.00;;;4.90;95.70;;;;;;4930692;28;20480;-67
2021/03/21 10:27:24;;;;;;;5.88;3.67;;;5.00;96.00;;;;;;4931980;28;20299;-67
2021/03/21 10:30:18;;;;;;;7.13;5.72;;;5.20;95.20;;;;;;4930043;29;20028;-68
2021/03/21 10:32:49;;;;;;;6.10;4.32;;;5.50;96.00;;;;;;4933401;29;20062;-67
2021/03/21 10:35:43;;;;;;;5.40;3.83;;;5.70;94.70;;;;;;4927108;28;20020;-68
2021/03/21 10:38:11;;;;;;;6.65;3.65;;;5.20;95.40;;;;;;4927775;29;20039;-67
2021/03/21 10:40:45;;;;;;;4.55;3.40;;;5.10;95.00;;;;;;4913278;29;20119;-68
2021/03/21 10:43:17;;;;;;;6.78;3.92;;;5.10;95.00;;;;;;4912889;29;20103;-68
2021/03/21 10:45:42;;;;;;;10.68;4.75;;;5.50;95.60;;;;;;4913389;29;20036;-68
2021/03/21 10:48:08;;;;;;;5.60;3.92;;;5.70;94.50;;;;;;4928392;28;20445;-68
2021/03/21 10:50:52;;;;;;;8.15;5.35;;;5.60;93.70;;;;;;4928487;29;20051;-68
2021/03/21 10:53:23;;;;;;;7.28;4.60;;;5.80;94.50;;;;;;4946409;28;20028;-68
2021/03/21 10:56:24;;;;;;;8.20;3.90;;;6.00;93.60;;;;;;4931874;29;20016;-68
2021/03/21 10:58:53;;;;;;;6.15;4.65;;;5.70;93.50;;;;;;4931942;29;20032;-68
2021/03/21 11:01:19;;;;;;;11.27;5.75;;;5.90;94.00;;;;;;4934671;29;20035;-67
2021/03/21 11:03:51;;;;;;;5.88;3.45;;;6.30;93.20;;;;;;4936682;28;20028;-68
2021/03/21 11:06:19;;;;;;;4.82;3.70;;;6.50;92.70;;;;;;4924405;29;20429;-69
2021/03/21 11:08:45;;;;;;;8.55;3.70;;;6.50;92.90;;;;;;4911917;29;20032;-70
2021/03/21 11:11:20;;;;;;;6.25;4.35;;;6.80;92.50;;;;;;4922866;29;20052;-68
2021/03/21 11:13:47;;;;;;;6.32;3.80;;;6.60;92.10;;;;;;4925173;29;20398;-69
2021/03/21 11:16:16;;;;;;;7.97;4.93;;;6.60;92.20;;;;;;4925734;29;20024;-69
2021/03/21 11:18:47;;;;;;;6.40;4.05;;;6.50;91.90;;;;;;4921766;29;20060;-68
2021/03/21 11:21:16;;;;;;;6.22;4.32;;;6.60;91.90;;;;;;4939912;29;20159;-69
2021/03/21 11:23:55;;;;;;;4.90;4.03;;;6.80;92.40;;;;;;4939480;28;20036;-67
2021/03/21 11:26:24;;;;;;;7.75;4.43;;;6.60;91.90;;;;;;4937790;29;20023;-67
2021/03/21 11:29:10;;;;;;;8.85;4.90;;;6.90;91.60;;;;;;4951789;28;20451;-68
2021/03/21 11:31:43;;;;;;;6.25;4.53;;;6.90;92.30;;;;;;4939343;28;20078;-68
2021/03/21 11:34:25;;;;;;;7.40;4.32;;;7.30;91.10;;;;;;4942132;29;20027;-68
2021/03/21 11:37:32;;;;;;;7.13;4.43;;;6.70;91.50;;;;;;4943101;29;20038;-67
2021/03/21 11:40:03;;;;;;;6.85;4.18;;;7.40;91.00;;;;;;4944418;28;20031;-68
2021/03/21 11:42:38;;;;;;;6.28;4.50;;;8.00;90.90;;;;;;4942272;29;20032;-69
2021/03/21 11:45:12;;;;;;;10.80;4.22;;;8.30;91.00;;;;;;4942231;29;20030;-68
2021/03/21 11:47:40;;;;;;;7.90;4.90;;;8.60;90.50;;;;;;4942894;28;20044;-69
2021/03/21 11:50:07;;;;;;;7.85;4.82;;;8.20;89.70;;;;;;4936270;29;20093;-68
2021/03/21 11:52:39;;;;;;;7.15;4.72;;;7.60;90.80;;;;;;4940079;29;20039;-67
2021/03/21 11:55:05;;;;;;;11.05;9.43;;;7.00;91.60;;;;;;4940199;29;20072;-66
2021/03/21 11:57:34;;;;;;;9.00;5.57;;;7.40;91.90;;;;;;4938321;29;20126;-66
2021/03/21 12:00:09;;;;;;;9.93;5.50;;;7.70;91.90;;;;;;4936202;28;20073;-66
2021/03/21 12:03:14;;;;;;;8.70;5.60;;;7.90;91.30;;;;;;4949783;29;20020;-67
2021/03/21 12:05:42;;;;;;;6.43;5.15;;;7.30;92.20;;;;;;4934439;28;20048;-66
2021/03/21 12:08:21;;;;;;;7.72;5.57;;;7.30;93.10;;;;;;4933674;29;20061;-67
2021/03/21 12:10:48;;;;;;;8.05;5.75;;;7.50;93.10;;;;;;4930700;28;20515;-67
2021/03/21 12:13:53;;;;;;;8.23;6.40;;;7.60;92.60;;;;;;4931736;29;20469;-66
2021/03/21 12:16:51;;;;;;;9.30;6.63;;;7.70;93.40;;;;;;4990913;28;20093;-68
2021/03/21 12:19:32;;;;;;;9.55;6.90;;;8.00;94.20;;;;;;4981668;28;20208;-68
2021/03/21 12:22:18;;;;;;;10.40;6.90;;;8.10;94.10;;;;;;4949335;28;20048;-68
2021/03/21 12:24:52;;;;;;;9.40;6.88;;;8.20;94.70;;;;;;4914033;29;20115;-68
2021/03/21 12:27:38;;;;;;;10.75;6.93;;;8.30;93.90;;;;;;4913493;29;20130;-68
2021/03/21 12:30:33;;;;;;;10.07;7.82;;;8.60;94.30;;;;;;4930792;29;20371;-68
2021/03/21 12:33:27;;;;;;;8.18;6.72;;;8.80;93.80;;;;;;4940606;28;20044;-68
2021/03/21 12:36:14;;;;;;;8.45;7.47;;;8.50;93.50;;;;;;4933277;29;20020;-69
2021/03/21 12:38:44;;;;;;;10.88;7.05;;;7.90;94.20;;;;;;4932950;28;20524;-68
2021/03/21 12:41:37;;;;;;;8.18;6.85;;;8.00;94.50;;;;;;4936125;29;20042;-68
2021/03/21 12:44:08;;;;;;;;;;;8.20;94.20;;;;;;4937414;28;20027;-68
2021/03/21 12:46:48;;;;;;;8.00;6.40;;;8.20;94.20;;;;;;4941039;29;19907;-68
2021/03/21 12:49:38;;;;;;;9.20;7.03;;;8.20;93.80;;;;;;4956257;28;20042;-69
2021/03/21 12:52:14;;;;;;;8.10;6.00;;;7.70;93.90;;;;;;4951426;28;20036;-68
2021/03/21 12:54:41;;;;;;;11.48;6.22;;;7.10;94.60;;;;;;4961696;28;20103;-68
2021/03/21 12:57:12;;;;;;;7.18;6.05;;;6.80;95.30;;;;;;4946368;29;20031;-72
2021/03/21 12:59:51;;;;;;;6.90;5.80;;;7.10;99.90;;;;;;4939667;29;20024;-72
2021/03/21 13:02:36;;;;;;;9.18;5.88;;;7.40;98.80;;;;;;4936974;29;20316;-68
2021/03/21 13:05:23;;;;;;;9.82;6.07;;;7.70;97.10;;;;;;4942228;29;20095;-68
2021/03/21 13:07:49;;;;;;;9.45;6.47;;;7.60;97.30;;;;;;4942888;29;20027;-68
2021/03/21 13:10:15;;;;;;;9.13;6.45;;;7.60;97.50;;;;;;4945234;28;20062;-68
2021/03/21 13:12:41;;;;;;;9.32;6.28;;;7.60;97.30;;;;;;4940669;29;20398;-67
2021/03/21 13:15:08;;;;;;;9.60;6.05;;;7.60;97.90;;;;;;4940697;28;20082;-68
2021/03/21 13:17:34;;;;;;;9.68;6.75;;;7.80;97.40;;;;;;4942543;29;20034;-67
2021/03/21 13:19:59;;;;;;;10.40;6.47;;;7.40;98.20;;;;;;4941744;28;20036;-67
2021/03/21 13:22:25;;;;;;;9.75;6.45;;;7.50;99.00;;;;;;4941420;28;20063;-68
2021/03/21 13:24:51;;;;;;;8.55;7.35;;;7.70;98.80;;;;;;4940147;28;20039;-68
2021/03/21 13:27:16;;;;;;;9.05;6.97;;;7.80;98.30;;;;;;4942332;28;20100;-67
2021/03/21 13:29:42;;;;;;;9.80;6.35;;;7.90;98.40;;;;;;4939484;28;20036;-67
2021/03/21 13:32:08;;;;;;;8.52;6.75;;;8.10;98.20;;;;;;4935737;28;20024;-68
2021/03/21 13:34:34;;;;;;;9.23;6.28;;;8.00;97.50;;;;;;4945217;29;20028;-68
2021/03/21 13:37:02;;;;;;;8.88;6.53;;;7.90;97.80;;;;;;4942303;29;20028;-68
2021/03/21 13:39:28;;;;;;;10.80;7.90;;;7.90;98.60;;;;;;4933610;29;20028;-68
2021/03/21 13:41:54;;;;;;;10.90;7.53;;;7.80;98.70;;;;;;4933033;29;20497;-67
2021/03/21 13:44:20;;;;;;;9.00;6.10;;;7.90;99.30;;;;;;4932644;28;20020;-67